Conception — WYR8548 — position and weather

sailwx.info

Track history (hours):
 
Tides and Currents Weather Stations Pressure Air Temp Water Temp Dewpoint Dewpoint Depression Visibility Wind Speed Wind Dir Waves Ship Positions

Conception

Owner: TRUTH AQUATICS, SANTA BARBARA, CA. More information available from US FCC via Universal Licensing System and Coast Guard Vessel Documentation Center.

Last reported at 2018-Aug-19 22:29 UTC. Time now 2018-Aug-19 22:51 UTC.
Position N 34°07' W 119°49'.

Length 24 m.

Type: Diving. MMSI: 367098480.

Date/timePositionNaut miles runAvg speedWind from/ knotsBaromVisibWave heightAir tempDewpointWater temp
2018-Aug-19 22:29N 34°07' W 119°49'4 6.1
2018-Aug-19 21:54N 34°04' W 119°51'0 0.0
2018-Aug-19 21:30N 34°04' W 119°51'0 0.0
2018-Aug-19 20:57N 34°04' W 119°51'0 0.6
2018-Aug-19 20:12N 34°04' W 119°50'1 2.7
2018-Aug-19 19:59N 34°04' W 119°51'2 2.1
2018-Aug-19 19:14N 34°04' W 119°53'0 0.0
2018-Aug-19 18:53N 34°04' W 119°53'0 0.0
2018-Aug-19 18:17N 34°04' W 119°53'0 0.0
2018-Aug-19 17:58N 34°04' W 119°53'3 6.4
2018-Aug-19 17:26N 34°08' W 119°52'4 9.4
2018-Aug-19 16:59N 34°12' W 119°50'6 9.6
2018-Aug-19 16:23N 34°17' W 119°47'3 7.4
2018-Aug-19 15:55N 34°20' W 119°46'5 8.6
2018-Aug-19 15:24N 34°23' W 119°42'2 3.1
2018-Aug-19 14:54N 34°24' W 119°41'0 0.0
2018-Aug-19 14:21N 34°24' W 119°41'0 0.0
2018-Aug-19 10:00N 34°24' W 119°41'0 0.0
2018-Aug-19 09:30N 34°24' W 119°41'0 0.0
2018-Aug-19 08:48N 34°24' W 119°41'0 0.0
2018-Aug-19 08:27N 34°24' W 119°41'0 0.0
2018-Aug-19 07:57N 34°24' W 119°41'0 0.0
2018-Aug-19 05:09N 34°24' W 119°41'0 0.0
2018-Aug-19 04:42N 34°24' W 119°41'0 0.0
2018-Aug-19 04:27N 34°24' W 119°41'0 0.0
2018-Aug-19 03:00N 34°24' W 119°41'0 0.0
2018-Aug-19 02:12N 34°24' W 119°41'0 0.0
2018-Aug-19 01:51N 34°24' W 119°41'0 0.0
2018-Aug-19 00:02N 34°24' W 119°41'0 0.0
2018-Aug-18 23:33N 34°24' W 119°41'0 0.2
2018-Aug-18 23:14N 34°24' W 119°41'2 7.1
2018-Aug-18 22:56N 34°22' W 119°41'510.5
2018-Aug-18 22:28N 34°18' W 119°42'510.6
2018-Aug-18 21:59N 34°13' W 119°43'610.3
2018-Aug-18 21:26N 34°07' W 119°44'4 8.7
2018-Aug-18 20:59N 34°03' W 119°45'0 0.0
2018-Aug-18 20:23N 34°03' W 119°45'0 0.0
2018-Aug-18 19:59N 34°03' W 119°45'0 0.0
2018-Aug-18 19:29N 34°03' W 119°45'4 8.6
2018-Aug-18 19:00N 34°01' W 119°40'0 0.2
2018-Aug-18 18:25N 34°01' W 119°40'0 0.0
2018-Aug-18 17:55N 34°01' W 119°40'0 0.0
2018-Aug-18 17:25N 34°01' W 119°40'1 2.0
2018-Aug-18 17:00N 34°02' W 119°41'4 3.4
2018-Aug-18 15:41N 34°04' W 119°46'0 0.0
2018-Aug-18 15:17N 34°04' W 119°46'0 0.0
2018-Aug-18 14:56N 34°04' W 119°46'0 0.0
2018-Aug-18 14:23N 34°04' W 119°46'1 3.6
2018-Aug-18 14:00N 34°03' W 119°44'0 0.0
2018-Aug-18 13:15N 34°03' W 119°44'0 0.0
2018-Aug-18 12:55N 34°03' W 119°44'2 5.2
2018-Aug-18 12:30N 34°04' W 119°42'510.5
2018-Aug-18 11:59N 34°05' W 119°36'5 9.7
2018-Aug-18 11:29N 34°02' W 119°31'610.8
2018-Aug-18 10:58N 33°57' W 119°27'510.7
2018-Aug-18 10:28N 33°53' W 119°23'510.3
2018-Aug-18 10:00N 33°49' W 119°20'510.4
2018-Aug-18 09:30N 33°45' W 119°16'510.4
2018-Aug-18 09:00N 33°41' W 119°12'510.5
2018-Aug-18 08:30N 33°36' W 119°09'710.5
2018-Aug-18 07:51N 33°31' W 119°04'2 5.9
2018-Aug-18 07:30N 33°29' W 119°03'0 0.0
2018-Aug-18 03:54N 33°29' W 119°03'0 0.0
2018-Aug-18 02:30N 33°29' W 119°03'0 0.0
2018-Aug-18 01:59N 33°29' W 119°03'1 0.1
2018-Aug-17 17:43N 33°28' W 119°03'1 0.4
2018-Aug-17 15:07N 33°29' W 119°04'0 0.2
2018-Aug-17 14:53N 33°29' W 119°04'3 3.3
2018-Aug-17 13:51N 33°29' W 118°60'8 0.3
2018-Aug-16 11:30N 33°35' W 118°54'6 9.7
2018-Aug-16 10:50N 33°40' W 118°60'4 9.8
2018-Aug-16 10:24N 33°43' W 119°04'4 9.5
2018-Aug-16 09:57N 33°45' W 119°08'6 9.7
2018-Aug-16 09:21N 33°49' W 119°13'3 9.5
2018-Aug-16 09:00N 33°51' W 119°16'5 9.3
2018-Aug-16 08:30N 33°54' W 119°21'5 9.3
2018-Aug-16 08:00N 33°57' W 119°25'4 8.9
2018-Aug-16 07:30N 33°59' W 119°29'3 2.0
2018-Aug-16 06:08N 34°01' W 119°32'0 0.1
2018-Aug-16 05:50N 34°01' W 119°32'0 0.0
2018-Aug-16 05:26N 34°01' W 119°32'0 0.0
2018-Aug-16 04:56N 34°01' W 119°32'0 0.0
2018-Aug-16 02:47N 34°01' W 119°32'3 7.2
2018-Aug-16 02:24N 34°03' W 119°34'410.4
2018-Aug-16 01:59N 34°03' W 119°39'3 2.5
2018-Aug-16 00:55N 34°02' W 119°42'0 0.0
2018-Aug-16 00:14N 34°02' W 119°42'1 3.7
2018-Aug-16 00:00N 34°02' W 119°42'2 2.2
2018-Aug-15 23:18N 34°03' W 119°44'0 0.0
2018-Aug-15 23:00N 34°03' W 119°44'0 0.0
2018-Aug-15 22:30N 34°03' W 119°44'0 0.2
2018-Aug-15 21:58N 34°03' W 119°44'1 2.0
2018-Aug-15 21:30N 34°03' W 119°45'0 0.0
2018-Aug-15 20:57N 34°03' W 119°45'0 0.0
2018-Aug-15 20:21N 34°03' W 119°45'0 0.6
2018-Aug-15 20:00N 34°03' W 119°45'3 6.9
2018-Aug-15 19:30N 34°03' W 119°49'0 0.0
2018-Aug-15 18:02N 34°03' W 119°49'0 1.2
2018-Aug-15 18:00N 34°03' W 119°49'4 7.4
2018-Aug-15 17:25N 34°07' W 119°47'5 9.2
2018-Aug-15 16:52N 34°12' W 119°46'4 9.8
2018-Aug-15 16:29N 34°16' W 119°44'5 9.8
2018-Aug-15 15:59N 34°20' W 119°42'4 1.0
2018-Aug-15 11:43N 34°24' W 119°41'0 0.0
2018-Aug-15 10:28N 34°24' W 119°41'0 0.0
2018-Aug-15 09:55N 34°24' W 119°41'0 0.0
2018-Aug-15 09:19N 34°24' W 119°41'0 0.0
2018-Aug-15 08:16N 34°24' W 119°41'0 0.0
2018-Aug-15 01:55N 34°24' W 119°41'0 0.3
2018-Aug-15 01:17N 34°24' W 119°42'0 0.0
2018-Aug-15 00:48N 34°24' W 119°42'0 0.3
2018-Aug-15 00:11N 34°24' W 119°41'0 0.0
2018-Aug-14 23:53N 34°24' W 119°41'0 0.0
2018-Aug-14 22:56N 34°24' W 119°41'0 0.0
2018-Aug-14 22:02N 34°24' W 119°41'0 0.0
2018-Aug-14 21:32N 34°24' W 119°41'0 0.0
2018-Aug-14 20:44N 34°24' W 119°41'0 0.0
2018-Aug-14 18:53N 34°24' W 119°41'0 0.0
2018-Aug-14 18:23N 34°24' W 119°41'0 0.0
2018-Aug-14 15:50N 34°24' W 119°41'0 0.0
2018-Aug-14 15:26N 34°24' W 119°41'0 0.0
2018-Aug-14 08:59N 34°24' W 119°41'0 0.0
2018-Aug-13 23:38N 34°24' W 119°41'0 0.0
2018-Aug-13 23:29N 34°24' W 119°41'0 0.0
2018-Aug-13 22:56N 34°24' W 119°41'0 0.0
2018-Aug-13 21:26N 34°24' W 119°41'0 0.0
2018-Aug-13 20:59N 34°24' W 119°41'0 0.0
2018-Aug-13 20:26N 34°24' W 119°41'0 0.0
2018-Aug-13 19:59N 34°24' W 119°41'0 0.0
2018-Aug-13 17:05N 34°24' W 119°41'0 0.0
2018-Aug-13 16:56N 34°24' W 119°41'0 0.0
2018-Aug-13 16:26N 34°24' W 119°41'0 0.0
2018-Aug-13 15:59N 34°24' W 119°41'0 0.0
2018-Aug-13 15:23N 34°24' W 119°41'0 0.0
2018-Aug-13 12:17N 34°24' W 119°41'0 0.0
2018-Aug-13 11:50N 34°24' W 119°41'0 0.0
2018-Aug-13 10:08N 34°24' W 119°41'0 0.0
2018-Aug-13 09:41N 34°24' W 119°41'0 0.0
2018-Aug-13 09:26N 34°24' W 119°41'0 0.0
2018-Aug-13 07:56N 34°24' W 119°41'0 0.0
2018-Aug-13 07:23N 34°24' W 119°41'0 0.0
2018-Aug-13 06:59N 34°24' W 119°41'0 0.0
2018-Aug-13 05:17N 34°24' W 119°41'0 0.0
2018-Aug-13 04:56N 34°24' W 119°41'0 0.0
2018-Aug-13 04:26N 34°24' W 119°41'0 0.0
2018-Aug-13 01:44N 34°24' W 119°41'0 0.0
2018-Aug-13 01:20N 34°24' W 119°41'0 0.0
2018-Aug-13 00:50N 34°24' W 119°41'0 0.0
2018-Aug-13 00:05N 34°24' W 119°41'0 0.0
2018-Aug-12 23:50N 34°24' W 119°41'0 0.0
2018-Aug-12 23:29N 34°24' W 119°41'0 0.0
2018-Aug-12 22:59N 34°24' W 119°41'0 0.0
2018-Aug-12 21:38N 34°24' W 119°41'0 0.0
2018-Aug-12 21:14N 34°24' W 119°41'0 0.0
2018-Aug-12 20:44N 34°24' W 119°41'0 0.0
2018-Aug-12 20:26N 34°24' W 119°41'0 0.0
2018-Aug-12 19:44N 34°24' W 119°41'0 0.0
2018-Aug-12 19:26N 34°24' W 119°41'0 0.0
2018-Aug-12 18:29N 34°24' W 119°41'0 0.0
2018-Aug-12 15:35N 34°24' W 119°41'0 0.0
2018-Aug-12 14:38N 34°24' W 119°41'0 0.0
2018-Aug-12 13:32N 34°24' W 119°41'0 0.0
2018-Aug-12 13:17N 34°24' W 119°41'0 0.0
2018-Aug-12 12:56N 34°24' W 119°41'0 0.0
2018-Aug-12 12:29N 34°24' W 119°41'0 0.0
2018-Aug-12 10:26N 34°24' W 119°41'0 0.0
2018-Aug-12 09:59N 34°24' W 119°41'0 0.0
2018-Aug-12 09:29N 34°24' W 119°41'0 0.0
2018-Aug-12 08:59N 34°24' W 119°41'0 0.0
2018-Aug-12 08:29N 34°24' W 119°41'0 0.0
2018-Aug-12 07:44N 34°24' W 119°41'0 0.0
2018-Aug-12 07:29N 34°24' W 119°41'0 0.0
2018-Aug-12 06:50N 34°24' W 119°41'0 0.0
2018-Aug-12 06:29N 34°24' W 119°41'0 0.0
2018-Aug-12 05:58N 34°24' W 119°41'0 0.0
2018-Aug-12 05:25N 34°24' W 119°41'0 0.0
2018-Aug-12 04:56N 34°24' W 119°41'0 0.0
2018-Aug-12 04:28N 34°24' W 119°41'0 0.0
2018-Aug-12 03:37N 34°24' W 119°41'0 0.0
2018-Aug-12 03:22N 34°24' W 119°41'0 0.0
2018-Aug-12 02:58N 34°24' W 119°41'0 0.0
2018-Aug-12 02:28N 34°24' W 119°41'0 0.0
2018-Aug-12 01:58N 34°24' W 119°41'0 0.0
2018-Aug-12 01:25N 34°24' W 119°41'0 0.0
2018-Aug-12 00:53N 34°24' W 119°41'0 0.0
2018-Aug-12 00:28N 34°24' W 119°41'0 0.0
2018-Aug-11 23:58N 34°24' W 119°41'0 0.0
2018-Aug-11 22:34N 34°24' W 119°41'0 0.0
2018-Aug-11 22:25N 34°24' W 119°41'0 0.0
2018-Aug-11 21:49N 34°24' W 119°41'1 3.1
2018-Aug-11 21:30N 34°23' W 119°41'5 9.9
2018-Aug-11 21:00N 34°19' W 119°44'510.2
2018-Aug-11 20:30N 34°15' W 119°47'510.2
2018-Aug-11 20:00N 34°10' W 119°50'7 3.2
2018-Aug-11 17:57N 34°04' W 119°54'0 0.0
2018-Aug-11 17:15N 34°04' W 119°54'0 0.0
2018-Aug-11 16:03N 34°04' W 119°54'0 0.1
2018-Aug-11 15:57N 34°04' W 119°54'0 0.0
2018-Aug-11 14:39N 34°04' W 119°54'0 0.0
2018-Aug-11 14:25N 34°04' W 119°54'2 5.3
2018-Aug-11 14:00N 34°04' W 119°51'510.1
2018-Aug-11 13:29N 34°04' W 119°45'1 0.8
2018-Aug-11 12:12N 34°03' W 119°44'0 0.0
2018-Aug-11 11:51N 34°03' W 119°44'0 0.0
2018-Aug-11 11:27N 34°03' W 119°44'0 0.0
2018-Aug-11 11:00N 34°03' W 119°44'0 0.0
2018-Aug-11 10:15N 34°03' W 119°44'0 0.0
2018-Aug-11 10:00N 34°03' W 119°44'0 0.0
2018-Aug-11 09:30N 34°03' W 119°44'0 0.0
2018-Aug-11 09:00N 34°03' W 119°44'0 0.0
2018-Aug-11 08:06N 34°03' W 119°44'0 0.0
2018-Aug-11 06:45N 34°03' W 119°44'0 0.0
2018-Aug-11 05:45N 34°03' W 119°44'0 0.0
2018-Aug-11 05:24N 34°03' W 119°44'0 0.0
2018-Aug-11 05:00N 34°03' W 119°44'0 0.0
2018-Aug-11 03:00N 34°03' W 119°44'0 0.0
2018-Aug-11 02:30N 34°03' W 119°44'0 0.0
2018-Aug-11 01:57N 34°03' W 119°44'0 0.0
2018-Aug-11 01:30N 34°03' W 119°44'0 0.0
2018-Aug-11 01:00N 34°03' W 119°44'0 0.0
2018-Aug-11 00:30N 34°03' W 119°44'0 0.0
2018-Aug-10 23:57N 34°03' W 119°44'0 0.0
2018-Aug-10 23:27N 34°03' W 119°44'0 0.0
2018-Aug-10 22:03N 34°03' W 119°44'0 0.2
2018-Aug-10 21:59N 34°03' W 119°44'2 4.5
2018-Aug-10 21:30N 34°04' W 119°46'5 9.1
2018-Aug-10 20:59N 34°04' W 119°51'2 3.9
2018-Aug-10 20:25N 34°05' W 119°54'0 0.0
2018-Aug-10 17:27N 34°05' W 119°54'0 0.0
2018-Aug-10 16:54N 34°05' W 119°54'0 0.0
2018-Aug-10 15:57N 34°05' W 119°54'0 0.0
2018-Aug-10 15:21N 34°05' W 119°54'0 0.0
2018-Aug-10 14:34N 34°04' W 119°54'0 1.5
2018-Aug-10 14:30N 34°04' W 119°54'0 0.1
2018-Aug-10 14:00N 34°04' W 119°54'4 3.4
2018-Aug-10 12:45N 34°03' W 119°49'0 0.0
2018-Aug-10 12:24N 34°03' W 119°49'0 0.0
2018-Aug-10 12:00N 34°03' W 119°49'0 0.0
2018-Aug-10 11:30N 34°03' W 119°49'0 0.0
2018-Aug-10 11:00N 34°03' W 119°49'0 0.0
2018-Aug-10 10:30N 34°03' W 119°49'0 0.0
2018-Aug-10 08:48N 34°03' W 119°49'0 0.0
2018-Aug-10 08:30N 34°03' W 119°49'0 0.0
2018-Aug-10 08:00N 34°03' W 119°49'0 0.0
2018-Aug-10 07:30N 34°03' W 119°49'0 0.0
2018-Aug-10 06:48N 34°03' W 119°49'0 0.0
2018-Aug-10 06:30N 34°03' W 119°49'0 0.0
2018-Aug-10 04:57N 34°03' W 119°49'0 0.0
2018-Aug-10 04:27N 34°03' W 119°49'0 0.0
2018-Aug-10 03:39N 34°03' W 119°49'0 0.0
2018-Aug-10 03:30N 34°03' W 119°49'0 0.0
2018-Aug-09 23:48N 34°03' W 119°49'0 0.0
2018-Aug-09 23:30N 34°03' W 119°49'0 0.0
2018-Aug-09 22:57N 34°03' W 119°49'  
Track history (hours):
 
Tides and Currents Weather Stations Pressure Air Temp Water Temp Dewpoint Dewpoint Depression Visibility Wind Speed Wind Dir Waves Ship Positions

Conception

Owner: TRUTH AQUATICS, SANTA BARBARA, CA. More information available from US FCC via Universal Licensing System and Coast Guard Vessel Documentation Center.

Last reported at 2018-Aug-19 22:29 UTC. Time now 2018-Aug-19 22:51 UTC.
Position N 34°07' W 119°49'.

Length 24 m.

Type: Diving. MMSI: 367098480.

Date/timePositionNaut miles runAvg speedWind from/ knotsBaromVisibWave heightAir tempDewpointWater temp
2018-Aug-19 22:29N 34°07' W 119°49'4 6.1
2018-Aug-19 21:54N 34°04' W 119°51'0 0.0
2018-Aug-19 21:30N 34°04' W 119°51'0 0.0
2018-Aug-19 20:57N 34°04' W 119°51'0 0.6
2018-Aug-19 20:12N 34°04' W 119°50'1 2.7
2018-Aug-19 19:59N 34°04' W 119°51'2 2.1
2018-Aug-19 19:14N 34°04' W 119°53'0 0.0
2018-Aug-19 18:53N 34°04' W 119°53'0 0.0
2018-Aug-19 18:17N 34°04' W 119°53'0 0.0
2018-Aug-19 17:58N 34°04' W 119°53'3 6.4
2018-Aug-19 17:26N 34°08' W 119°52'4 9.4
2018-Aug-19 16:59N 34°12' W 119°50'6 9.6
2018-Aug-19 16:23N 34°17' W 119°47'3 7.4
2018-Aug-19 15:55N 34°20' W 119°46'5 8.6
2018-Aug-19 15:24N 34°23' W 119°42'2 3.1
2018-Aug-19 14:54N 34°24' W 119°41'0 0.0
2018-Aug-19 14:21N 34°24' W 119°41'0 0.0
2018-Aug-19 10:00N 34°24' W 119°41'0 0.0
2018-Aug-19 09:30N 34°24' W 119°41'0 0.0
2018-Aug-19 08:48N 34°24' W 119°41'0 0.0
2018-Aug-19 08:27N 34°24' W 119°41'0 0.0
2018-Aug-19 07:57N 34°24' W 119°41'0 0.0
2018-Aug-19 05:09N 34°24' W 119°41'0 0.0
2018-Aug-19 04:42N 34°24' W 119°41'0 0.0
2018-Aug-19 04:27N 34°24' W 119°41'0 0.0
2018-Aug-19 03:00N 34°24' W 119°41'0 0.0
2018-Aug-19 02:12N 34°24' W 119°41'0 0.0
2018-Aug-19 01:51N 34°24' W 119°41'0 0.0
2018-Aug-19 00:02N 34°24' W 119°41'0 0.0
2018-Aug-18 23:33N 34°24' W 119°41'0 0.2
2018-Aug-18 23:14N 34°24' W 119°41'2 7.1
2018-Aug-18 22:56N 34°22' W 119°41'510.5
2018-Aug-18 22:28N 34°18' W 119°42'510.6
2018-Aug-18 21:59N 34°13' W 119°43'610.3
2018-Aug-18 21:26N 34°07' W 119°44'4 8.7
2018-Aug-18 20:59N 34°03' W 119°45'0 0.0
2018-Aug-18 20:23N 34°03' W 119°45'0 0.0
2018-Aug-18 19:59N 34°03' W 119°45'0 0.0
2018-Aug-18 19:29N 34°03' W 119°45'4 8.6
2018-Aug-18 19:00N 34°01' W 119°40'0 0.2
2018-Aug-18 18:25N 34°01' W 119°40'0 0.0
2018-Aug-18 17:55N 34°01' W 119°40'0 0.0
2018-Aug-18 17:25N 34°01' W 119°40'1 2.0
2018-Aug-18 17:00N 34°02' W 119°41'4 3.4
2018-Aug-18 15:41N 34°04' W 119°46'0 0.0
2018-Aug-18 15:17N 34°04' W 119°46'0 0.0
2018-Aug-18 14:56N 34°04' W 119°46'0 0.0
2018-Aug-18 14:23N 34°04' W 119°46'1 3.6
2018-Aug-18 14:00N 34°03' W 119°44'0 0.0
2018-Aug-18 13:15N 34°03' W 119°44'0 0.0
2018-Aug-18 12:55N 34°03' W 119°44'2 5.2
2018-Aug-18 12:30N 34°04' W 119°42'510.5
2018-Aug-18 11:59N 34°05' W 119°36'5 9.7
2018-Aug-18 11:29N 34°02' W 119°31'610.8
2018-Aug-18 10:58N 33°57' W 119°27'510.7
2018-Aug-18 10:28N 33°53' W 119°23'510.3
2018-Aug-18 10:00N 33°49' W 119°20'510.4
2018-Aug-18 09:30N 33°45' W 119°16'510.4
2018-Aug-18 09:00N 33°41' W 119°12'510.5
2018-Aug-18 08:30N 33°36' W 119°09'710.5
2018-Aug-18 07:51N 33°31' W 119°04'2 5.9
2018-Aug-18 07:30N 33°29' W 119°03'0 0.0
2018-Aug-18 03:54N 33°29' W 119°03'0 0.0
2018-Aug-18 02:30N 33°29' W 119°03'0 0.0
2018-Aug-18 01:59N 33°29' W 119°03'1 0.1
2018-Aug-17 17:43N 33°28' W 119°03'1 0.4
2018-Aug-17 15:07N 33°29' W 119°04'0 0.2
2018-Aug-17 14:53N 33°29' W 119°04'3 3.3
2018-Aug-17 13:51N 33°29' W 118°60'8 0.3
2018-Aug-16 11:30N 33°35' W 118°54'6 9.7
2018-Aug-16 10:50N 33°40' W 118°60'4 9.8
2018-Aug-16 10:24N 33°43' W 119°04'4 9.5
2018-Aug-16 09:57N 33°45' W 119°08'6 9.7
2018-Aug-16 09:21N 33°49' W 119°13'3 9.5
2018-Aug-16 09:00N 33°51' W 119°16'5 9.3
2018-Aug-16 08:30N 33°54' W 119°21'5 9.3
2018-Aug-16 08:00N 33°57' W 119°25'4 8.9
2018-Aug-16 07:30N 33°59' W 119°29'3 2.0
2018-Aug-16 06:08N 34°01' W 119°32'0 0.1
2018-Aug-16 05:50N 34°01' W 119°32'0 0.0
2018-Aug-16 05:26N 34°01' W 119°32'0 0.0
2018-Aug-16 04:56N 34°01' W 119°32'0 0.0
2018-Aug-16 02:47N 34°01' W 119°32'3 7.2
2018-Aug-16 02:24N 34°03' W 119°34'410.4
2018-Aug-16 01:59N 34°03' W 119°39'3 2.5
2018-Aug-16 00:55N 34°02' W 119°42'0 0.0
2018-Aug-16 00:14N 34°02' W 119°42'1 3.7
2018-Aug-16 00:00N 34°02' W 119°42'2 2.2
2018-Aug-15 23:18N 34°03' W 119°44'0 0.0
2018-Aug-15 23:00N 34°03' W 119°44'0 0.0
2018-Aug-15 22:30N 34°03' W 119°44'0 0.2
2018-Aug-15 21:58N 34°03' W 119°44'1 2.0
2018-Aug-15 21:30N 34°03' W 119°45'0 0.0
2018-Aug-15 20:57N 34°03' W 119°45'0 0.0
2018-Aug-15 20:21N 34°03' W 119°45'0 0.6
2018-Aug-15 20:00N 34°03' W 119°45'3 6.9
2018-Aug-15 19:30N 34°03' W 119°49'0 0.0
2018-Aug-15 18:02N 34°03' W 119°49'0 1.2
2018-Aug-15 18:00N 34°03' W 119°49'4 7.4
2018-Aug-15 17:25N 34°07' W 119°47'5 9.2
2018-Aug-15 16:52N 34°12' W 119°46'4 9.8
2018-Aug-15 16:29N 34°16' W 119°44'5 9.8
2018-Aug-15 15:59N 34°20' W 119°42'4 1.0
2018-Aug-15 11:43N 34°24' W 119°41'0 0.0
2018-Aug-15 10:28N 34°24' W 119°41'0 0.0
2018-Aug-15 09:55N 34°24' W 119°41'0 0.0
2018-Aug-15 09:19N 34°24' W 119°41'0 0.0
2018-Aug-15 08:16N 34°24' W 119°41'0 0.0
2018-Aug-15 01:55N 34°24' W 119°41'0 0.3
2018-Aug-15 01:17N 34°24' W 119°42'0 0.0
2018-Aug-15 00:48N 34°24' W 119°42'0 0.3
2018-Aug-15 00:11N 34°24' W 119°41'0 0.0
2018-Aug-14 23:53N 34°24' W 119°41'0 0.0
2018-Aug-14 22:56N 34°24' W 119°41'0 0.0
2018-Aug-14 22:02N 34°24' W 119°41'0 0.0
2018-Aug-14 21:32N 34°24' W 119°41'0 0.0
2018-Aug-14 20:44N 34°24' W 119°41'0 0.0
2018-Aug-14 18:53N 34°24' W 119°41'0 0.0
2018-Aug-14 18:23N 34°24' W 119°41'0 0.0
2018-Aug-14 15:50N 34°24' W 119°41'0 0.0
2018-Aug-14 15:26N 34°24' W 119°41'0 0.0
2018-Aug-14 08:59N 34°24' W 119°41'0 0.0
2018-Aug-13 23:38N 34°24' W 119°41'0 0.0
2018-Aug-13 23:29N 34°24' W 119°41'0 0.0
2018-Aug-13 22:56N 34°24' W 119°41'0 0.0
2018-Aug-13 21:26N 34°24' W 119°41'0 0.0
2018-Aug-13 20:59N 34°24' W 119°41'0 0.0
2018-Aug-13 20:26N 34°24' W 119°41'0 0.0
2018-Aug-13 19:59N 34°24' W 119°41'0 0.0
2018-Aug-13 17:05N 34°24' W 119°41'0 0.0
2018-Aug-13 16:56N 34°24' W 119°41'0 0.0
2018-Aug-13 16:26N 34°24' W 119°41'0 0.0
2018-Aug-13 15:59N 34°24' W 119°41'0 0.0
2018-Aug-13 15:23N 34°24' W 119°41'0 0.0
2018-Aug-13 12:17N 34°24' W 119°41'0 0.0
2018-Aug-13 11:50N 34°24' W 119°41'0 0.0
2018-Aug-13 10:08N 34°24' W 119°41'0 0.0
2018-Aug-13 09:41N 34°24' W 119°41'0 0.0
2018-Aug-13 09:26N 34°24' W 119°41'0 0.0
2018-Aug-13 07:56N 34°24' W 119°41'0 0.0
2018-Aug-13 07:23N 34°24' W 119°41'0 0.0
2018-Aug-13 06:59N 34°24' W 119°41'0 0.0
2018-Aug-13 05:17N 34°24' W 119°41'0 0.0
2018-Aug-13 04:56N 34°24' W 119°41'0 0.0
2018-Aug-13 04:26N 34°24' W 119°41'0 0.0
2018-Aug-13 01:44N 34°24' W 119°41'0 0.0
2018-Aug-13 01:20N 34°24' W 119°41'0 0.0
2018-Aug-13 00:50N 34°24' W 119°41'0 0.0
2018-Aug-13 00:05N 34°24' W 119°41'0 0.0
2018-Aug-12 23:50N 34°24' W 119°41'0 0.0
2018-Aug-12 23:29N 34°24' W 119°41'0 0.0
2018-Aug-12 22:59N 34°24' W 119°41'0 0.0
2018-Aug-12 21:38N 34°24' W 119°41'0 0.0
2018-Aug-12 21:14N 34°24' W 119°41'0 0.0
2018-Aug-12 20:44N 34°24' W 119°41'0 0.0
2018-Aug-12 20:26N 34°24' W 119°41'0 0.0
2018-Aug-12 19:44N 34°24' W 119°41'0 0.0
2018-Aug-12 19:26N 34°24' W 119°41'0 0.0
2018-Aug-12 18:29N 34°24' W 119°41'0 0.0
2018-Aug-12 15:35N 34°24' W 119°41'0 0.0
2018-Aug-12 14:38N 34°24' W 119°41'0 0.0
2018-Aug-12 13:32N 34°24' W 119°41'0 0.0
2018-Aug-12 13:17N 34°24' W 119°41'0 0.0
2018-Aug-12 12:56N 34°24' W 119°41'0 0.0
2018-Aug-12 12:29N 34°24' W 119°41'0 0.0
2018-Aug-12 10:26N 34°24' W 119°41'0 0.0
2018-Aug-12 09:59N 34°24' W 119°41'0 0.0
2018-Aug-12 09:29N 34°24' W 119°41'0 0.0
2018-Aug-12 08:59N 34°24' W 119°41'0 0.0
2018-Aug-12 08:29N 34°24' W 119°41'0 0.0
2018-Aug-12 07:44N 34°24' W 119°41'0 0.0
2018-Aug-12 07:29N 34°24' W 119°41'0 0.0
2018-Aug-12 06:50N 34°24' W 119°41'0 0.0
2018-Aug-12 06:29N 34°24' W 119°41'0 0.0
2018-Aug-12 05:58N 34°24' W 119°41'0 0.0
2018-Aug-12 05:25N 34°24' W 119°41'0 0.0
2018-Aug-12 04:56N 34°24' W 119°41'0 0.0
2018-Aug-12 04:28N 34°24' W 119°41'0 0.0
2018-Aug-12 03:37N 34°24' W 119°41'0 0.0
2018-Aug-12 03:22N 34°24' W 119°41'0 0.0
2018-Aug-12 02:58N 34°24' W 119°41'0 0.0
2018-Aug-12 02:28N 34°24' W 119°41'0 0.0
2018-Aug-12 01:58N 34°24' W 119°41'0 0.0
2018-Aug-12 01:25N 34°24' W 119°41'0 0.0
2018-Aug-12 00:53N 34°24' W 119°41'0 0.0
2018-Aug-12 00:28N 34°24' W 119°41'0 0.0
2018-Aug-11 23:58N 34°24' W 119°41'0 0.0
2018-Aug-11 22:34N 34°24' W 119°41'0 0.0
2018-Aug-11 22:25N 34°24' W 119°41'0 0.0
2018-Aug-11 21:49N 34°24' W 119°41'1 3.1
2018-Aug-11 21:30N 34°23' W 119°41'5 9.9
2018-Aug-11 21:00N 34°19' W 119°44'510.2
2018-Aug-11 20:30N 34°15' W 119°47'510.2
2018-Aug-11 20:00N 34°10' W 119°50'7 3.2
2018-Aug-11 17:57N 34°04' W 119°54'0 0.0
2018-Aug-11 17:15N 34°04' W 119°54'0 0.0
2018-Aug-11 16:03N 34°04' W 119°54'0 0.1
2018-Aug-11 15:57N 34°04' W 119°54'0 0.0
2018-Aug-11 14:39N 34°04' W 119°54'0 0.0
2018-Aug-11 14:25N 34°04' W 119°54'2 5.3
2018-Aug-11 14:00N 34°04' W 119°51'510.1
2018-Aug-11 13:29N 34°04' W 119°45'1 0.8
2018-Aug-11 12:12N 34°03' W 119°44'0 0.0
2018-Aug-11 11:51N 34°03' W 119°44'0 0.0
2018-Aug-11 11:27N 34°03' W 119°44'0 0.0
2018-Aug-11 11:00N 34°03' W 119°44'0 0.0
2018-Aug-11 10:15N 34°03' W 119°44'0 0.0
2018-Aug-11 10:00N 34°03' W 119°44'0 0.0
2018-Aug-11 09:30N 34°03' W 119°44'0 0.0
2018-Aug-11 09:00N 34°03' W 119°44'0 0.0
2018-Aug-11 08:06N 34°03' W 119°44'0 0.0
2018-Aug-11 06:45N 34°03' W 119°44'0 0.0
2018-Aug-11 05:45N 34°03' W 119°44'0 0.0
2018-Aug-11 05:24N 34°03' W 119°44'0 0.0
2018-Aug-11 05:00N 34°03' W 119°44'0 0.0
2018-Aug-11 03:00N 34°03' W 119°44'0 0.0
2018-Aug-11 02:30N 34°03' W 119°44'0 0.0
2018-Aug-11 01:57N 34°03' W 119°44'0 0.0
2018-Aug-11 01:30N 34°03' W 119°44'0 0.0
2018-Aug-11 01:00N 34°03' W 119°44'0 0.0
2018-Aug-11 00:30N 34°03' W 119°44'0 0.0
2018-Aug-10 23:57N 34°03' W 119°44'0 0.0
2018-Aug-10 23:27N 34°03' W 119°44'0 0.0
2018-Aug-10 22:03N 34°03' W 119°44'0 0.2
2018-Aug-10 21:59N 34°03' W 119°44'2 4.5
2018-Aug-10 21:30N 34°04' W 119°46'5 9.1
2018-Aug-10 20:59N 34°04' W 119°51'2 3.9
2018-Aug-10 20:25N 34°05' W 119°54'0 0.0
2018-Aug-10 17:27N 34°05' W 119°54'0 0.0
2018-Aug-10 16:54N 34°05' W 119°54'0 0.0
2018-Aug-10 15:57N 34°05' W 119°54'0 0.0
2018-Aug-10 15:21N 34°05' W 119°54'0 0.0
2018-Aug-10 14:34N 34°04' W 119°54'0 1.5
2018-Aug-10 14:30N 34°04' W 119°54'0 0.1
2018-Aug-10 14:00N 34°04' W 119°54'4 3.4
2018-Aug-10 12:45N 34°03' W 119°49'0 0.0
2018-Aug-10 12:24N 34°03' W 119°49'0 0.0
2018-Aug-10 12:00N 34°03' W 119°49'0 0.0
2018-Aug-10 11:30N 34°03' W 119°49'0 0.0
2018-Aug-10 11:00N 34°03' W 119°49'0 0.0
2018-Aug-10 10:30N 34°03' W 119°49'0 0.0
2018-Aug-10 08:48N 34°03' W 119°49'0 0.0
2018-Aug-10 08:30N 34°03' W 119°49'0 0.0
2018-Aug-10 08:00N 34°03' W 119°49'0 0.0
2018-Aug-10 07:30N 34°03' W 119°49'0 0.0
2018-Aug-10 06:48N 34°03' W 119°49'0 0.0
2018-Aug-10 06:30N 34°03' W 119°49'0 0.0
2018-Aug-10 04:57N 34°03' W 119°49'0 0.0
2018-Aug-10 04:27N 34°03' W 119°49'0 0.0
2018-Aug-10 03:39N 34°03' W 119°49'0 0.0
2018-Aug-10 03:30N 34°03' W 119°49'0 0.0
2018-Aug-09 23:48N 34°03' W 119°49'0 0.0
2018-Aug-09 23:30N 34°03' W 119°49'0 0.0
2018-Aug-09 22:57N 34°03' W 119°49'  

Dump ship's entire track history